Aérodrome :
LOGIN :

S'inscrire | Disclaimer

   EN    FR    IT 

 










Légende :    VFR   VFR Marginal   IFR   IFR Intensif   IFR Très Intensif
Visi : 
Plafond : 
>= 8 km
>= 3000ft
5 à 8 km
1000 à 3000 ft
1500m à 5 km
500 à 1000 ft
800 à 1500m
200 à 500 ft
< 800m
< 200 ft
Symboles :   Orages  Brouillard  Fortes neiges  Fortes précipitations  Vent > 20 kt
SIGMETs :   Divers  Orages  Givrage  Turbulence  Onde Orograph.  Cendres Volcan.






- Altitude de l'aérodrome : 408 ft
- Code IATA : FKB


EDSB - Karlsruhe Baden Baden

DERNIER METAR :
  • 041220Z 19012KT 150V220 CAVOK 25/10 Q1019

METARs EXPIRÉS :
  • 041150Z 23010G21KT 200V280 CAVOK 26/11 Q1019
  • 041120Z 23011KT 190V280 CAVOK 25/11 Q1020
  • 041050Z 22011KT CAVOK 24/10 Q1020
  • 041020Z 22011KT 180V270 CAVOK 25/11 Q1020
  • 040950Z 24011KT 210V280 CAVOK 23/10 Q1020

TAF TAF EDSB
Valide du 04 à 12h jusqu'au 05 à 12h UTC


041100Z 0412/0512 23012KT CAVOK
PROB30
TEMPO 0412/0416 24015G25KT
BECMG 0416/0418 22006KT
BECMG 0507/0509 23012KT
TEMPO 0509/0512 24015G25KT



MET'MAP, la Météo Aéronautique d'un coup d'oeil ! - Copyright ORBIFLY Décembre 2007 - Disclaimer

ORBIFLY MET'MAP TEAM :

Programmation & Développement : Alexandra Zaïnal
Sur une idée originale de : Baudouin d'Aumeries
Assistance à la programmation : Marc-Olivier Méhu
Soutien technique & logistique : Manuel Goepfert

Contact : metmap@orbifly.com




SOURCES & CREDITS :

   NOAA